createdAt,value
2017-09-16T00:00:38.160Z,0
2017-09-16T00:01:38.445Z,0
2017-09-16T00:02:38.111Z,0
2017-09-16T00:03:38.401Z,0
2017-09-16T00:04:38.387Z,0
2017-09-16T00:05:38.343Z,0
2017-09-16T00:06:38.330Z,0
2017-09-16T00:07:38.306Z,0
2017-09-16T00:08:38.284Z,0
2017-09-16T00:09:38.250Z,0
2017-09-16T00:10:38.231Z,0
2017-09-16T00:11:37.907Z,0
2017-09-16T00:12:38.180Z,0
2017-09-16T00:13:38.160Z,0
2017-09-16T00:14:38.143Z,0
2017-09-16T00:15:37.856Z,0
2017-09-16T00:16:38.098Z,0
2017-09-16T00:17:37.754Z,0
2017-09-16T00:18:38.044Z,0
2017-09-16T00:19:38.023Z,0
2017-09-16T00:20:37.687Z,0
2017-09-16T00:21:37.663Z,0
2017-09-16T00:22:37.952Z,0
2017-09-16T00:23:37.916Z,0
2017-09-16T00:24:37.898Z,0
2017-09-16T00:25:37.873Z,0
2017-09-16T00:26:37.544Z,0
2017-09-16T00:27:37.848Z,0
2017-09-16T00:28:38.249Z,0
2017-09-16T00:29:37.789Z,0
2017-09-16T00:30:37.759Z,0
2017-09-16T00:31:37.766Z,0
2017-09-16T00:32:37.708Z,0
2017-09-16T00:33:37.685Z,0
2017-09-16T00:34:37.349Z,0
2017-09-16T00:35:37.652Z,0
2017-09-16T00:36:37.617Z,0
2017-09-16T00:37:37.580Z,0
2017-09-16T00:38:37.571Z,0
2017-09-16T00:39:37.593Z,0
2017-09-16T00:40:37.516Z,0
2017-09-16T00:41:37.494Z,0
2017-09-16T00:42:37.468Z,0
2017-09-16T00:43:37.451Z,0
2017-09-16T00:44:37.432Z,0
2017-09-16T00:45:37.450Z,0
2017-09-16T00:46:37.379Z,0
2017-09-16T00:47:37.352Z,0
2017-09-16T00:48:37.334Z,0
2017-09-16T00:49:37.316Z,0
2017-09-16T00:50:37.280Z,0
2017-09-16T00:51:37.017Z,0
2017-09-16T00:52:37.268Z,0
2017-09-16T00:53:37.211Z,0
2017-09-16T00:54:36.879Z,0
2017-09-16T00:55:37.166Z,0
2017-09-16T00:56:37.139Z,0
2017-09-16T00:57:37.116Z,0
2017-09-16T00:58:37.129Z,0
2017-09-16T00:59:36.787Z,0
2017-09-16T01:00:36.741Z,0
2017-09-16T01:01:37.088Z,0
2017-09-16T01:02:36.996Z,0
2017-09-16T01:03:36.971Z,0
2017-09-16T01:04:36.951Z,0
2017-09-16T01:05:36.924Z,0
2017-09-16T01:06:36.901Z,0
2017-09-16T01:07:36.567Z,0
2017-09-16T01:08:36.850Z,0
2017-09-16T01:09:36.830Z,0
2017-09-16T01:10:36.803Z,0
2017-09-16T01:11:36.785Z,0
2017-09-16T01:12:36.449Z,0
2017-09-16T01:13:36.750Z,0
2017-09-16T01:14:36.707Z,0
2017-09-16T01:15:36.687Z,0
2017-09-16T01:16:36.353Z,0
2017-09-16T01:17:36.647Z,0
2017-09-16T01:18:36.621Z,0
2017-09-16T01:19:36.597Z,0
2017-09-16T01:20:36.570Z,0
2017-09-16T01:21:36.537Z,0
2017-09-16T01:22:36.523Z,0
2017-09-16T01:23:36.184Z,0
2017-09-16T01:24:36.467Z,0
2017-09-16T01:25:36.449Z,0
2017-09-16T01:26:36.438Z,0
2017-09-16T01:27:36.414Z,0
2017-09-16T01:28:36.426Z,0
2017-09-16T01:29:36.382Z,0
2017-09-16T01:30:36.326Z,0
2017-09-16T01:31:36.307Z,0
2017-09-16T01:32:36.317Z,0
2017-09-16T01:33:36.260Z,0
2017-09-16T01:34:36.237Z,0
2017-09-16T01:35:36.216Z,0
2017-09-16T01:36:36.183Z,0
2017-09-16T01:37:36.159Z,0
2017-09-16T01:38:36.138Z,0
2017-09-16T01:39:36.113Z,0
2017-09-16T01:40:35.782Z,0
2017-09-16T01:41:36.064Z,0
2017-09-16T01:42:36.050Z,0
2017-09-16T01:43:36.026Z,0
2017-09-16T01:44:36.046Z,0
2017-09-16T01:45:35.979Z,0
2017-09-16T01:46:35.965Z,0
2017-09-16T01:47:35.955Z,0
2017-09-16T01:48:35.918Z,0
2017-09-16T01:49:35.876Z,0
2017-09-16T01:50:35.847Z,0
2017-09-16T01:51:35.834Z,0
2017-09-16T01:52:35.799Z,0
2017-09-16T01:53:35.775Z,0
2017-09-16T01:54:35.766Z,0
2017-09-16T01:55:35.789Z,0
2017-09-16T01:56:35.718Z,0
2017-09-16T01:57:35.679Z,0
2017-09-16T01:58:35.684Z,0
2017-09-16T01:59:35.644Z,0
2017-09-16T02:00:35.615Z,0
2017-09-16T02:01:35.284Z,0
2017-09-16T02:02:35.576Z,0
2017-09-16T02:03:35.563Z,0
2017-09-16T02:04:35.518Z,0
2017-09-16T02:05:35.489Z,0
2017-09-16T02:06:35.474Z,0
2017-09-16T02:07:35.452Z,0
2017-09-16T02:08:35.420Z,0
2017-09-16T02:09:35.402Z,0
2017-09-16T02:10:35.070Z,0
2017-09-16T02:11:35.345Z,0
2017-09-16T02:12:35.329Z,0
2017-09-16T02:13:35.299Z,0
2017-09-16T02:14:34.964Z,0
2017-09-16T02:15:35.276Z,0
2017-09-16T02:16:35.284Z,0
2017-09-16T02:17:35.200Z,0
2017-09-16T02:18:35.183Z,0
2017-09-16T02:19:35.160Z,0
2017-09-16T02:20:35.139Z,0
2017-09-16T02:21:35.154Z,0
2017-09-16T02:22:35.098Z,0
2017-09-16T02:23:34.753Z,0
2017-09-16T02:24:35.040Z,0
2017-09-16T02:25:35.019Z,0
2017-09-16T02:26:34.993Z,0
2017-09-16T02:27:35.166Z,0
2017-09-16T02:28:34.947Z,0
2017-09-16T02:29:34.920Z,0
2017-09-16T02:30:34.902Z,0
2017-09-16T02:31:34.920Z,0
2017-09-16T02:32:34.536Z,0
2017-09-16T02:33:34.823Z,0
2017-09-16T02:34:34.856Z,0
2017-09-16T02:35:34.780Z,0
2017-09-16T02:36:34.747Z,0
2017-09-16T02:37:34.426Z,0
2017-09-16T02:38:34.711Z,0
2017-09-16T02:39:34.688Z,0
2017-09-16T02:40:34.654Z,0
2017-09-16T02:41:34.641Z,0
2017-09-16T02:42:34.612Z,0
2017-09-16T02:43:34.585Z,0
2017-09-16T02:44:34.245Z,0
2017-09-16T02:45:34.544Z,0
2017-09-16T02:46:34.511Z,0
2017-09-16T02:47:34.492Z,0
2017-09-16T02:48:34.458Z,0
2017-09-16T02:49:34.436Z,0
2017-09-16T02:50:34.427Z,0
2017-09-16T02:51:34.391Z,0
2017-09-16T02:52:34.423Z,0
2017-09-16T02:53:34.361Z,0
2017-09-16T02:54:34.325Z,0
2017-09-16T02:55:34.308Z,0
2017-09-16T02:56:34.267Z,0
2017-09-16T02:57:33.933Z,0
2017-09-16T02:58:34.223Z,0
2017-09-16T02:59:33.897Z,0
2017-09-16T03:00:34.204Z,0
2017-09-16T03:01:34.147Z,0
2017-09-16T03:02:34.130Z,0
2017-09-16T03:03:34.113Z,0
2017-09-16T03:04:34.075Z,0
2017-09-16T03:05:34.052Z,0
2017-09-16T03:06:34.030Z,0
2017-09-16T03:07:33.698Z,0
2017-09-16T03:08:33.987Z,0
2017-09-16T03:10:33.936Z,0
2017-09-16T03:11:33.220Z,0
2017-09-16T03:12:33.577Z,0
2017-09-16T03:13:33.868Z,0
2017-09-16T03:14:33.838Z,0
2017-09-16T03:15:33.812Z,0
2017-09-16T03:16:33.483Z,0
2017-09-16T03:17:33.461Z,0
2017-09-16T03:18:33.744Z,0
2017-09-16T03:19:33.721Z,0
2017-09-16T03:20:33.719Z,0
2017-09-16T03:21:33.734Z,0
2017-09-16T03:22:33.665Z,0
2017-09-16T03:23:33.322Z,0
2017-09-16T03:24:33.600Z,0
2017-09-16T03:25:33.787Z,0
2017-09-16T03:26:33.552Z,0
2017-09-16T03:27:33.527Z,0
2017-09-16T03:28:33.505Z,0
2017-09-16T03:29:33.482Z,0
2017-09-16T03:30:33.474Z,0
2017-09-16T03:31:33.424Z,0
2017-09-16T03:32:33.411Z,0
2017-09-16T03:33:33.377Z,0
2017-09-16T03:34:33.050Z,0
2017-09-16T03:35:33.338Z,0
2017-09-16T03:36:33.010Z,0
2017-09-16T03:37:33.301Z,0
2017-09-16T03:38:33.260Z,0
2017-09-16T03:39:33.248Z,0
2017-09-16T03:40:33.220Z,0
2017-09-16T03:41:33.192Z,0
2017-09-16T03:42:33.171Z,0
2017-09-16T03:43:33.155Z,0
2017-09-16T03:44:33.125Z,0
2017-09-16T03:45:33.098Z,0
2017-09-16T03:46:33.098Z,0
2017-09-16T03:47:32.750Z,0
2017-09-16T03:48:33.023Z,0
2017-09-16T03:49:33.008Z,0
2017-09-16T03:50:32.671Z,0
2017-09-16T03:51:32.998Z,0
2017-09-16T03:52:32.942Z,0
2017-09-16T03:53:32.909Z,0
2017-09-16T03:54:32.886Z,0
2017-09-16T03:55:32.558Z,0
2017-09-16T03:56:32.849Z,0
2017-09-16T03:57:32.816Z,0
2017-09-16T03:58:32.789Z,0
2017-09-16T03:59:32.774Z,0
2017-09-16T04:00:32.440Z,0
2017-09-16T04:01:32.730Z,0
2017-09-16T04:02:32.689Z,0
2017-09-16T04:03:32.709Z,0
2017-09-16T04:04:32.344Z,0
2017-09-16T04:05:32.325Z,0
2017-09-16T04:06:32.617Z,0
2017-09-16T04:07:32.580Z,0
2017-09-16T04:08:32.280Z,0
2017-09-16T04:09:32.526Z,0
2017-09-16T04:10:32.203Z,0
2017-09-16T04:11:32.188Z,0
2017-09-16T04:12:32.152Z,0
2017-09-16T04:13:32.441Z,0
2017-09-16T04:14:32.420Z,0
2017-09-16T04:15:32.395Z,0
2017-09-16T04:16:32.366Z,0
2017-09-16T04:17:32.341Z,0
2017-09-16T04:18:32.323Z,0
2017-09-16T04:19:32.299Z,0
2017-09-16T04:20:32.275Z,0
2017-09-16T04:21:32.251Z,0
2017-09-16T04:22:32.227Z,0
2017-09-16T04:23:32.205Z,0
2017-09-16T04:24:32.227Z,0
2017-09-16T04:25:32.156Z,0
2017-09-16T04:26:32.144Z,0
2017-09-16T04:27:32.111Z,0
2017-09-16T04:28:32.100Z,0
2017-09-16T04:29:32.058Z,0
2017-09-16T04:30:32.046Z,0
2017-09-16T04:31:32.012Z,0
2017-09-16T04:32:32.044Z,0
2017-09-16T04:33:31.963Z,0
2017-09-16T04:34:31.941Z,0
2017-09-16T04:35:31.926Z,0
2017-09-16T04:36:31.895Z,0
2017-09-16T04:37:31.566Z,4
2017-09-16T04:38:31.849Z,4
2017-09-16T04:39:31.834Z,0
2017-09-16T04:40:31.500Z,4
2017-09-16T04:41:31.781Z,4
2017-09-16T04:42:31.756Z,8
2017-09-16T04:43:31.737Z,4
2017-09-16T04:44:31.709Z,8
2017-09-16T04:45:31.707Z,4
2017-09-16T04:46:31.663Z,8
2017-09-16T04:47:31.633Z,8
2017-09-16T04:48:31.616Z,12
2017-09-16T04:49:31.591Z,12
2017-09-16T04:50:31.580Z,12
2017-09-16T04:51:31.545Z,16
2017-09-16T04:52:31.528Z,20
2017-09-16T04:53:31.513Z,20
2017-09-16T04:54:31.475Z,24
2017-09-16T04:55:31.445Z,28
2017-09-16T04:56:31.668Z,32
2017-09-16T04:57:31.418Z,36
2017-09-16T04:58:31.378Z,40
2017-09-16T04:59:31.364Z,40
2017-09-16T05:00:31.338Z,44
2017-09-16T05:01:31.314Z,52
2017-09-16T05:02:31.337Z,56
2017-09-16T05:03:31.468Z,68
2017-09-16T05:04:31.274Z,80
2017-09-16T05:05:31.210Z,92
2017-09-16T05:06:31.201Z,104
2017-09-16T05:07:31.170Z,116
2017-09-16T05:08:31.145Z,132
2017-09-16T05:09:31.131Z,144
2017-09-16T05:10:30.794Z,156
2017-09-16T05:11:31.071Z,176
2017-09-16T05:12:31.065Z,192
2017-09-16T05:13:31.036Z,208
2017-09-16T05:14:31.057Z,224
2017-09-16T05:15:30.990Z,244
2017-09-16T05:16:30.972Z,260
2017-09-16T05:17:30.627Z,276
2017-09-16T05:18:30.920Z,292
2017-09-16T05:19:30.889Z,308
2017-09-16T05:20:30.879Z,332
2017-09-16T05:21:30.545Z,344
2017-09-16T05:22:30.819Z,364
2017-09-16T05:23:30.807Z,384
2017-09-16T05:24:30.765Z,400
2017-09-16T05:25:30.981Z,416
2017-09-16T05:26:30.735Z,424
2017-09-16T05:27:30.923Z,436
2017-09-16T05:28:30.365Z,456
2017-09-16T05:29:30.897Z,472
2017-09-16T05:30:30.638Z,496
2017-09-16T05:31:30.611Z,528
2017-09-16T05:32:30.585Z,556
2017-09-16T05:33:30.558Z,584
2017-09-16T05:34:30.549Z,620
2017-09-16T05:35:30.516Z,660
2017-09-16T05:36:30.195Z,672
2017-09-16T05:37:30.491Z,684
2017-09-16T05:38:30.452Z,704
2017-09-16T05:39:30.433Z,748
2017-09-16T05:40:30.404Z,800
2017-09-16T05:41:30.382Z,852
2017-09-16T05:42:30.357Z,876
2017-09-16T05:43:30.330Z,896
2017-09-16T05:44:30.315Z,928
2017-09-16T05:45:30.283Z,976
2017-09-16T05:46:30.260Z,1036
2017-09-16T05:47:30.233Z,1076
2017-09-16T05:48:30.240Z,1104
2017-09-16T05:49:30.187Z,1124
2017-09-16T05:50:30.171Z,1128
2017-09-16T05:51:29.833Z,1132
2017-09-16T05:52:30.121Z,1148
2017-09-16T05:53:30.096Z,1160
2017-09-16T05:54:30.073Z,1172
2017-09-16T05:55:30.060Z,1192
2017-09-16T05:56:30.030Z,1240
2017-09-16T05:57:30.004Z,1296
2017-09-16T05:58:29.982Z,1392
2017-09-16T05:59:29.959Z,1476
2017-09-16T06:00:29.623Z,1580
2017-09-16T06:01:29.910Z,1664
2017-09-16T06:02:29.893Z,1756
2017-09-16T06:03:29.861Z,1832
2017-09-16T06:04:29.836Z,1872
2017-09-16T06:05:29.821Z,1932
2017-09-16T06:06:29.794Z,2024
2017-09-16T06:07:29.767Z,2100
2017-09-16T06:08:44.385Z,2180
2017-09-16T06:09:29.433Z,2200
2017-09-16T06:10:29.703Z,2244
2017-09-16T06:11:29.684Z,2324
2017-09-16T06:12:29.656Z,2408
2017-09-16T06:13:29.633Z,2476
2017-09-16T06:14:29.675Z,2548
2017-09-16T06:15:29.592Z,2600
2017-09-16T06:16:28.949Z,2608
2017-09-16T06:17:29.541Z,2652
2017-09-16T06:18:29.533Z,2676
2017-09-16T06:19:29.488Z,2728
2017-09-16T06:20:29.479Z,2752
2017-09-16T06:21:29.449Z,2768
2017-09-16T06:22:29.422Z,2816
2017-09-16T06:23:29.402Z,2872
2017-09-16T06:24:29.384Z,2904
2017-09-16T06:25:29.053Z,2912
2017-09-16T06:26:29.336Z,2924
2017-09-16T06:27:29.310Z,2976
2017-09-16T06:28:29.285Z,3036
2017-09-16T06:29:29.259Z,3116
2017-09-16T06:30:29.269Z,3240
2017-09-16T06:31:43.520Z,3344
2017-09-16T06:32:29.206Z,3412
2017-09-16T06:33:29.165Z,3508
2017-09-16T06:34:29.151Z,3556
2017-09-16T06:35:29.125Z,3648
2017-09-16T06:36:29.110Z,3792
2017-09-16T06:37:29.080Z,3800
2017-09-16T06:38:29.059Z,3788
2017-09-16T06:39:29.032Z,3832
2017-09-16T06:40:29.018Z,3960
2017-09-16T06:41:28.679Z,4084
2017-09-16T06:42:28.971Z,4176
2017-09-16T06:43:28.947Z,4260
2017-09-16T06:44:28.916Z,4380
2017-09-16T06:45:28.899Z,4512
2017-09-16T06:46:28.876Z,4564
2017-09-16T06:47:28.849Z,4672
2017-09-16T06:48:28.825Z,4976
2017-09-16T06:49:28.815Z,5300
2017-09-16T06:50:28.785Z,5644
2017-09-16T06:51:28.773Z,5972
2017-09-16T06:52:28.741Z,6192
2017-09-16T06:53:28.721Z,6224
2017-09-16T06:54:28.695Z,6272
2017-09-16T06:55:28.664Z,6392
2017-09-16T06:56:28.644Z,6460
2017-09-16T06:57:28.672Z,6296
2017-09-16T06:58:28.602Z,5988
2017-09-16T06:59:28.579Z,5712
2017-09-16T07:00:28.598Z,5536
2017-09-16T07:01:28.528Z,6116
2017-09-16T07:02:28.510Z,11124
2017-09-16T07:03:28.485Z,10220
2017-09-16T07:04:28.659Z,15168
2017-09-16T07:05:28.450Z,15296
2017-09-16T07:06:28.469Z,15552
2017-09-16T07:07:28.406Z,16256
2017-09-16T07:08:28.379Z,16480
2017-09-16T07:09:28.361Z,16352
2017-09-16T07:10:28.332Z,16384
2017-09-16T07:11:28.313Z,16864
2017-09-16T07:12:28.295Z,16544
2017-09-16T07:13:28.272Z,16704
2017-09-16T07:14:28.247Z,17248
2017-09-16T07:15:27.620Z,17376
2017-09-16T07:16:28.207Z,16672
2017-09-16T07:17:28.195Z,17632
2017-09-16T07:18:28.168Z,18112
2017-09-16T07:19:28.163Z,19456
2017-09-16T07:20:28.122Z,20352
2017-09-16T07:21:28.104Z,20640
2017-09-16T07:22:28.086Z,21216
2017-09-16T07:23:28.070Z,20672
2017-09-16T07:24:28.046Z,20992
2017-09-16T07:25:28.043Z,20832
2017-09-16T07:26:27.757Z,21344
2017-09-16T07:27:27.737Z,22112
2017-09-16T07:28:27.676Z,21248
2017-09-16T07:29:27.345Z,21984
2017-09-16T07:30:27.948Z,22272
2017-09-16T07:31:27.926Z,22976
2017-09-16T07:32:27.912Z,24576
2017-09-16T07:33:27.595Z,25728
2017-09-16T07:34:27.920Z,26912
2017-09-16T07:35:27.868Z,27776
2017-09-16T07:36:27.836Z,27936
2017-09-16T07:37:27.824Z,29408
2017-09-16T07:38:27.502Z,29856
2017-09-16T07:39:27.797Z,30208
2017-09-16T07:40:27.470Z,32672
2017-09-16T07:41:27.760Z,28064
2017-09-16T07:42:27.787Z,20224
2017-09-16T07:43:27.728Z,22656
2017-09-16T07:44:27.407Z,19584
2017-09-16T07:45:27.704Z,18176
2017-09-16T07:46:27.688Z,18912
2017-09-16T07:47:27.670Z,28544
2017-09-16T07:48:27.706Z,11916
2017-09-16T07:49:27.637Z,28352
2017-09-16T07:50:27.624Z,36224
2017-09-16T07:51:27.640Z,36480
2017-09-16T07:52:27.589Z,39328
2017-09-16T07:53:27.280Z,40864
2017-09-16T07:54:27.575Z,38304
2017-09-16T07:55:27.545Z,41344
2017-09-16T07:56:27.580Z,40064
2017-09-16T07:57:27.513Z,39776
2017-09-16T07:58:27.183Z,41088
2017-09-16T07:59:27.497Z,44800
2017-09-16T08:00:27.169Z,43968
2017-09-16T08:01:27.501Z,43616
2017-09-16T08:02:27.141Z,46272
2017-09-16T08:03:27.428Z,24544
2017-09-16T08:04:27.418Z,29088
2017-09-16T08:05:27.089Z,27008
2017-09-16T08:06:27.389Z,24576
2017-09-16T08:07:27.382Z,21248
2017-09-16T08:08:27.054Z,20448
2017-09-16T08:09:27.341Z,22368
2017-09-16T08:10:27.345Z,24960
2017-09-16T08:11:27.325Z,23488
2017-09-16T08:12:27.301Z,23328
2017-09-16T08:13:26.976Z,23040
2017-09-16T08:14:27.490Z,26464
2017-09-16T08:15:27.369Z,41248
2017-09-16T08:16:27.246Z,41440
2017-09-16T08:17:27.227Z,41440
2017-09-16T08:18:26.908Z,31232
2017-09-16T08:19:27.200Z,43872
2017-09-16T08:20:27.185Z,47232
2017-09-16T08:21:26.864Z,47776
2017-09-16T08:22:26.845Z,46656
2017-09-16T08:23:27.145Z,45184
2017-09-16T08:24:27.123Z,42656
2017-09-16T08:25:27.207Z,42112
2017-09-16T08:26:27.102Z,44480
2017-09-16T08:27:27.093Z,45248
2017-09-16T08:28:27.077Z,46656
2017-09-16T08:29:27.061Z,47552
2017-09-16T08:30:27.051Z,46880
2017-09-16T08:31:26.732Z,45760
2017-09-16T08:32:27.028Z,44736
2017-09-16T08:33:27.022Z,45024
2017-09-16T08:34:26.692Z,47168
2017-09-16T08:35:26.682Z,49056
2017-09-16T08:36:26.984Z,47872
2017-09-16T08:37:26.651Z,45760
2017-09-16T08:38:26.327Z,40160
2017-09-16T08:39:26.942Z,34816
2017-09-16T08:40:26.619Z,35232
2017-09-16T08:41:26.908Z,13948
2017-09-16T08:42:26.960Z,30272
2017-09-16T08:43:26.897Z,37792
2017-09-16T08:44:26.876Z,40160
2017-09-16T08:45:26.865Z,16340
2017-09-16T08:46:26.846Z,40928
2017-09-16T08:47:26.846Z,34240
2017-09-16T08:48:26.519Z,31776
2017-09-16T08:49:26.824Z,29664
2017-09-16T08:50:26.801Z,25408
2017-09-16T08:51:26.481Z,13936
2017-09-16T08:52:26.784Z,16992
2017-09-16T08:53:26.765Z,45088
2017-09-16T08:54:26.752Z,14972
2017-09-16T08:55:26.440Z,14104
2017-09-16T08:56:26.718Z,20096
2017-09-16T08:57:26.721Z,10260
2017-09-16T08:58:26.709Z,42944
2017-09-16T08:59:26.368Z,16104
2017-09-16T09:00:26.714Z,19008
2017-09-16T09:01:26.342Z,17856
2017-09-16T09:02:26.640Z,49088
2017-09-16T09:03:26.627Z,13352
2017-09-16T09:04:26.617Z,10516
2017-09-16T09:05:26.280Z,15564
2017-09-16T09:06:26.568Z,18944
2017-09-16T09:07:26.569Z,18560
2017-09-16T09:08:26.228Z,18176
2017-09-16T09:09:26.212Z,20096
2017-09-16T09:10:26.212Z,16800
2017-09-16T09:11:26.493Z,28352
2017-09-16T09:12:26.473Z,16104
2017-09-16T09:13:26.472Z,23744
2017-09-16T09:14:26.441Z,16496
2017-09-16T09:15:26.472Z,13516
2017-09-16T09:16:26.186Z,20608
2017-09-16T09:17:26.388Z,17696
2017-09-16T09:18:26.365Z,17408
2017-09-16T09:19:26.391Z,17632
2017-09-16T09:20:26.342Z,14868
2017-09-16T09:21:26.321Z,15228
2017-09-16T09:22:26.303Z,12276
2017-09-16T09:23:25.984Z,10640
2017-09-16T09:24:26.280Z,9768
2017-09-16T09:25:26.247Z,8248
2017-09-16T09:26:26.238Z,10288
2017-09-16T09:27:26.206Z,14332
2017-09-16T09:28:26.191Z,10700
2017-09-16T09:29:26.181Z,9212
2017-09-16T09:30:25.845Z,10696
2017-09-16T09:31:25.830Z,33824
2017-09-16T09:32:25.504Z,60128
2017-09-16T09:33:26.148Z,12660
2017-09-16T09:34:26.075Z,54272
2017-09-16T09:35:26.060Z,50656
2017-09-16T09:36:25.736Z,11176
2017-09-16T09:37:26.041Z,11676
2017-09-16T09:38:26.010Z,48672
2017-09-16T09:39:25.996Z,21376
2017-09-16T09:40:25.965Z,52864
2017-09-16T09:41:25.646Z,15820
2017-09-16T09:42:25.930Z,12436
2017-09-16T09:43:25.608Z,14784
2017-09-16T09:44:25.901Z,38624
2017-09-16T09:45:25.886Z,59296
2017-09-16T09:46:25.867Z,14148
2017-09-16T09:47:25.835Z,30528
2017-09-16T09:48:25.830Z,58848
2017-09-16T09:49:25.801Z,14652
2017-09-16T09:50:25.889Z,12600
2017-09-16T09:51:25.777Z,18816
2017-09-16T09:52:25.749Z,17376
2017-09-16T09:53:25.739Z,12156
2017-09-16T09:54:25.711Z,10744
2017-09-16T09:55:25.389Z,17216
2017-09-16T09:56:25.374Z,13632
2017-09-16T09:57:25.663Z,11916
2017-09-16T09:58:25.644Z,14628
2017-09-16T09:59:25.635Z,14548
2017-09-16T10:00:25.612Z,12136
2017-09-16T10:01:25.591Z,10128
2017-09-16T10:02:25.579Z,8244
2017-09-16T10:03:25.560Z,7520
2017-09-16T10:04:25.537Z,12188
2017-09-16T10:05:25.213Z,14528
2017-09-16T10:06:25.506Z,13056
2017-09-16T10:07:25.497Z,11472
2017-09-16T10:08:25.466Z,10096
2017-09-16T10:09:25.456Z,9472
2017-09-16T10:10:25.432Z,10028
2017-09-16T10:11:25.411Z,11604
2017-09-16T10:12:25.389Z,13116
2017-09-16T10:13:25.380Z,14868
2017-09-16T10:14:25.358Z,14088
2017-09-16T10:15:25.081Z,13080
2017-09-16T10:16:25.360Z,11204
2017-09-16T10:17:24.993Z,10212
2017-09-16T10:18:24.968Z,9008
2017-09-16T10:19:25.261Z,8168
2017-09-16T10:20:24.934Z,11348
2017-09-16T10:21:25.221Z,13256
2017-09-16T10:22:25.211Z,16816
2017-09-16T10:23:25.193Z,18656
2017-09-16T10:24:25.155Z,16864
2017-09-16T10:25:25.138Z,17408
2017-09-16T10:26:24.812Z,16084
2017-09-16T10:27:25.101Z,15360
2017-09-16T10:28:25.088Z,16884
2017-09-16T10:29:25.070Z,18048
2017-09-16T10:30:25.041Z,18144
2017-09-16T10:31:25.031Z,16332
2017-09-16T10:32:24.702Z,15992
2017-09-16T10:33:25.036Z,19776
2017-09-16T10:34:24.662Z,20864
2017-09-16T10:35:24.951Z,20224
2017-09-16T10:36:24.953Z,17408
2017-09-16T10:37:24.903Z,13924
2017-09-16T10:38:24.893Z,15736
2017-09-16T10:39:24.566Z,16020
2017-09-16T10:40:24.853Z,17664
2017-09-16T10:41:24.834Z,17504
2017-09-16T10:42:24.815Z,20000
2017-09-16T10:43:24.789Z,20896
2017-09-16T10:44:24.792Z,20256
2017-09-16T10:45:24.450Z,20544
2017-09-16T10:46:24.745Z,18880
2017-09-16T10:47:24.788Z,14272
2017-09-16T10:48:24.757Z,14676
2017-09-16T10:49:24.686Z,16864
2017-09-16T10:50:24.674Z,17664
2017-09-16T10:51:24.646Z,20224
2017-09-16T10:52:24.622Z,20832
2017-09-16T10:53:24.601Z,21120
2017-09-16T10:54:24.588Z,17280
2017-09-16T10:55:24.567Z,14040
2017-09-16T10:56:24.268Z,15236
2017-09-16T10:57:24.524Z,12400
2017-09-16T10:58:24.511Z,10924
2017-09-16T10:59:24.178Z,10252
2017-09-16T11:00:24.465Z,10828
2017-09-16T11:01:24.447Z,14872
2017-09-16T11:02:24.434Z,16992
2017-09-16T11:03:24.417Z,14764
2017-09-16T11:04:24.390Z,13380
2017-09-16T11:05:24.372Z,11356
2017-09-16T11:06:24.042Z,11160
2017-09-16T11:07:24.078Z,11820
2017-09-16T11:08:24.365Z,10688
2017-09-16T11:09:24.293Z,10820
2017-09-16T11:10:24.275Z,9588
2017-09-16T11:11:24.252Z,11492
2017-09-16T11:12:24.232Z,14692
2017-09-16T11:13:24.217Z,16184
2017-09-16T11:14:24.217Z,16260
2017-09-16T11:15:24.181Z,17440
2017-09-16T11:16:24.168Z,17056
2017-09-16T11:17:24.147Z,17504
2017-09-16T11:18:24.117Z,15436
2017-09-16T11:19:24.102Z,14168
2017-09-16T11:20:24.084Z,14200
2017-09-16T11:21:24.067Z,15476
2017-09-16T11:22:24.054Z,16104
2017-09-16T11:23:24.019Z,16768
2017-09-16T11:24:24.006Z,17312
2017-09-16T11:25:23.978Z,17472
2017-09-16T11:26:23.963Z,16484
2017-09-16T11:27:23.954Z,17088
2017-09-16T11:28:23.926Z,17952
2017-09-16T11:29:23.914Z,18016
2017-09-16T11:30:23.900Z,17632
2017-09-16T11:31:23.881Z,16736
2017-09-16T11:32:23.849Z,15456
2017-09-16T11:33:23.832Z,14788
2017-09-16T11:34:23.839Z,14088
2017-09-16T11:35:23.796Z,13404
2017-09-16T11:36:23.780Z,11992
2017-09-16T11:37:23.811Z,9968
2017-09-16T11:38:23.738Z,7652
2017-09-16T11:39:23.765Z,5920
2017-09-16T11:40:23.692Z,4920
2017-09-16T11:41:23.731Z,4264
2017-09-16T11:42:23.659Z,3612
2017-09-16T11:43:23.639Z,2992
2017-09-16T11:44:23.634Z,2420
2017-09-16T11:45:23.645Z,1940
2017-09-16T11:46:23.587Z,1676
2017-09-16T11:47:23.563Z,1588
2017-09-16T11:48:23.550Z,1700
2017-09-16T11:49:23.222Z,1972
2017-09-16T11:50:23.200Z,2224
2017-09-16T11:51:23.512Z,2640
2017-09-16T11:52:23.467Z,2744
2017-09-16T11:53:23.141Z,2896
2017-09-16T11:54:23.431Z,3676
2017-09-16T11:55:22.787Z,4632
2017-09-16T11:56:23.380Z,5708
2017-09-16T11:57:23.361Z,7112
2017-09-16T11:58:23.351Z,8556
2017-09-16T11:59:23.068Z,8768
2017-09-16T12:00:23.288Z,7880
2017-09-16T12:01:23.299Z,6844
2017-09-16T12:02:23.268Z,6172
2017-09-16T12:03:22.988Z,5568
2017-09-16T12:04:23.220Z,5092
2017-09-16T12:05:23.197Z,4592
2017-09-16T12:06:23.190Z,4284
2017-09-16T12:07:23.155Z,4108
2017-09-16T12:08:23.149Z,4944
2017-09-16T12:09:22.809Z,6628
2017-09-16T12:10:23.099Z,8620
2017-09-16T12:11:23.120Z,9284
2017-09-16T12:12:23.064Z,8820
2017-09-16T12:13:23.041Z,8732
2017-09-16T12:14:22.724Z,8524
2017-09-16T12:15:22.693Z,7824
2017-09-16T12:16:22.970Z,6968
2017-09-16T12:17:22.953Z,6340
2017-09-16T12:18:22.937Z,5596
2017-09-16T12:19:22.919Z,4880
2017-09-16T12:20:22.881Z,4280
2017-09-16T12:21:22.887Z,3844
2017-09-16T12:22:22.852Z,3520
2017-09-16T12:23:22.525Z,3372
2017-09-16T12:24:22.507Z,3204
2017-09-16T12:25:22.531Z,3132
2017-09-16T12:26:22.766Z,3116
2017-09-16T12:27:22.434Z,2864
2017-09-16T12:28:22.727Z,2776
2017-09-16T12:29:22.708Z,3100
2017-09-16T12:30:22.681Z,4016
2017-09-16T12:31:22.669Z,5440
2017-09-16T12:32:22.660Z,6552
2017-09-16T12:33:22.615Z,7044
2017-09-16T12:34:22.294Z,6784
2017-09-16T12:35:22.575Z,6748
2017-09-16T12:36:22.563Z,7928
2017-09-16T12:37:22.539Z,9536
2017-09-16T12:38:22.525Z,10340
2017-09-16T12:39:22.490Z,10316
2017-09-16T12:40:22.473Z,10072
2017-09-16T12:41:22.462Z,10040
2017-09-16T12:42:22.126Z,10524
2017-09-16T12:43:22.407Z,10976
2017-09-16T12:44:22.389Z,10924
2017-09-16T12:45:22.381Z,10644
2017-09-16T12:46:22.354Z,10428
2017-09-16T12:47:22.323Z,10144
2017-09-16T12:48:22.003Z,10044
2017-09-16T12:49:22.294Z,9956
2017-09-16T12:50:22.272Z,9824
2017-09-16T12:51:22.265Z,9592
2017-09-16T12:52:22.230Z,9324
2017-09-16T12:53:22.215Z,9316
2017-09-16T12:54:22.195Z,9156
2017-09-16T12:55:22.170Z,8588
2017-09-16T12:56:22.149Z,8184
2017-09-16T12:57:22.130Z,7928
2017-09-16T12:58:22.097Z,7652
2017-09-16T12:59:22.085Z,7440
2017-09-16T13:00:22.073Z,7264
2017-09-16T13:01:22.041Z,7048
2017-09-16T13:02:22.029Z,6824
2017-09-16T13:03:21.707Z,6608
2017-09-16T13:04:21.984Z,6528
2017-09-16T13:05:21.963Z,6444
2017-09-16T13:06:22.002Z,6372
2017-09-16T13:07:21.632Z,6336
2017-09-16T13:08:21.595Z,6376
2017-09-16T13:09:21.881Z,6404
2017-09-16T13:10:21.861Z,6324
2017-09-16T13:11:21.883Z,6172
2017-09-16T13:12:21.819Z,6196
2017-09-16T13:13:21.788Z,6556
2017-09-16T13:14:21.776Z,7164
2017-09-16T13:15:21.757Z,7764
2017-09-16T13:16:21.734Z,8436
2017-09-16T13:17:21.714Z,9180
2017-09-16T13:18:21.703Z,10060
2017-09-16T13:19:21.677Z,10888
2017-09-16T13:20:21.352Z,11500
2017-09-16T13:21:21.323Z,11880
2017-09-16T13:22:21.664Z,12056
2017-09-16T13:23:21.591Z,12120
2017-09-16T13:24:21.577Z,12204
2017-09-16T13:25:21.573Z,12300
2017-09-16T13:26:21.224Z,12292
2017-09-16T13:27:21.202Z,12268
2017-09-16T13:28:21.494Z,12320
2017-09-16T13:29:21.470Z,12412
2017-09-16T13:30:21.138Z,12372
2017-09-16T13:31:21.121Z,12200
2017-09-16T13:32:21.412Z,12076
2017-09-16T13:33:21.084Z,11940
2017-09-16T13:34:21.371Z,11800
2017-09-16T13:35:21.374Z,11980
2017-09-16T13:36:21.025Z,11904
2017-09-16T13:37:21.008Z,11624
2017-09-16T13:38:21.294Z,11392
2017-09-16T13:39:20.663Z,11124
2017-09-16T13:40:21.256Z,11164